sensor_id;sensor_type;location;lat;lon;timestamp;P1;durP1;ratioP1;P2;durP2;ratioP2
19593;SDS011;9944;48.240;16.478;2023-07-20T00:04:14;4.47;;;2.17;;
19593;SDS011;9944;48.240;16.478;2023-07-20T00:08:38;3.80;;;2.10;;
19593;SDS011;9944;48.240;16.478;2023-07-20T00:13:02;3.42;;;2.28;;
19593;SDS011;9944;48.240;16.478;2023-07-20T00:17:26;4.28;;;2.63;;
19593;SDS011;9944;48.240;16.478;2023-07-20T00:21:51;4.20;;;2.47;;
19593;SDS011;9944;48.240;16.478;2023-07-20T00:26:16;3.70;;;2.15;;
19593;SDS011;9944;48.240;16.478;2023-07-20T00:30:40;2.85;;;1.90;;
19593;SDS011;9944;48.240;16.478;2023-07-20T00:35:05;4.32;;;2.15;;
19593;SDS011;9944;48.240;16.478;2023-07-20T00:39:30;3.72;;;1.90;;
19593;SDS011;9944;48.240;16.478;2023-07-20T00:43:54;3.17;;;2.30;;
19593;SDS011;9944;48.240;16.478;2023-07-20T00:48:18;3.35;;;2.30;;
19593;SDS011;9944;48.240;16.478;2023-07-20T00:52:42;3.47;;;2.40;;
19593;SDS011;9944;48.240;16.478;2023-07-20T00:57:07;3.83;;;2.13;;
19593;SDS011;9944;48.240;16.478;2023-07-20T01:01:33;3.13;;;2.15;;
19593;SDS011;9944;48.240;16.478;2023-07-20T01:05:59;3.25;;;2.28;;
19593;SDS011;9944;48.240;16.478;2023-07-20T01:10:29;2.50;;;1.85;;
19593;SDS011;9944;48.240;16.478;2023-07-20T01:15:00;4.25;;;2.53;;
19593;SDS011;9944;48.240;16.478;2023-07-20T01:19:24;4.47;;;2.97;;
19593;SDS011;9944;48.240;16.478;2023-07-20T01:24:13;2.17;;;1.77;;
19593;SDS011;9944;48.240;16.478;2023-07-20T01:28:55;2.83;;;2.22;;
19593;SDS011;9944;48.240;16.478;2023-07-20T01:33:33;6.07;;;2.22;;
19593;SDS011;9944;48.240;16.478;2023-07-20T01:37:57;3.22;;;2.22;;
19593;SDS011;9944;48.240;16.478;2023-07-20T01:42:44;2.83;;;2.05;;
19593;SDS011;9944;48.240;16.478;2023-07-20T01:47:09;3.88;;;1.90;;
19593;SDS011;9944;48.240;16.478;2023-07-20T01:51:34;3.63;;;2.00;;
19593;SDS011;9944;48.240;16.478;2023-07-20T01:55:58;2.20;;;1.92;;
19593;SDS011;9944;48.240;16.478;2023-07-20T02:00:23;4.30;;;2.00;;
19593;SDS011;9944;48.240;16.478;2023-07-20T02:04:47;2.90;;;2.05;;
19593;SDS011;9944;48.240;16.478;2023-07-20T02:09:12;3.13;;;2.00;;
19593;SDS011;9944;48.240;16.478;2023-07-20T02:13:35;3.38;;;1.90;;
19593;SDS011;9944;48.240;16.478;2023-07-20T02:17:59;3.13;;;2.35;;
19593;SDS011;9944;48.240;16.478;2023-07-20T02:22:23;2.58;;;1.98;;
19593;SDS011;9944;48.240;16.478;2023-07-20T02:26:48;2.67;;;2.00;;
19593;SDS011;9944;48.240;16.478;2023-07-20T02:31:12;2.30;;;1.70;;
19593;SDS011;9944;48.240;16.478;2023-07-20T02:35:36;3.45;;;1.63;;
19593;SDS011;9944;48.240;16.478;2023-07-20T02:39:59;4.13;;;2.00;;
19593;SDS011;9944;48.240;16.478;2023-07-20T02:44:25;1.92;;;1.73;;
19593;SDS011;9944;48.240;16.478;2023-07-20T02:48:48;2.55;;;1.90;;
19593;SDS011;9944;48.240;16.478;2023-07-20T02:53:12;3.20;;;2.05;;
19593;SDS011;9944;48.240;16.478;2023-07-20T02:57:35;4.30;;;2.17;;
19593;SDS011;9944;48.240;16.478;2023-07-20T03:02:00;2.30;;;1.80;;
19593;SDS011;9944;48.240;16.478;2023-07-20T03:06:24;4.88;;;2.40;;
19593;SDS011;9944;48.240;16.478;2023-07-20T03:10:48;2.65;;;2.15;;
19593;SDS011;9944;48.240;16.478;2023-07-20T03:15:12;3.75;;;1.90;;
19593;SDS011;9944;48.240;16.478;2023-07-20T03:19:37;2.83;;;2.17;;
19593;SDS011;9944;48.240;16.478;2023-07-20T03:24:01;2.75;;;2.05;;
19593;SDS011;9944;48.240;16.478;2023-07-20T03:28:25;3.13;;;2.03;;
19593;SDS011;9944;48.240;16.478;2023-07-20T03:32:48;3.28;;;2.47;;
19593;SDS011;9944;48.240;16.478;2023-07-20T03:37:14;2.25;;;1.92;;
19593;SDS011;9944;48.240;16.478;2023-07-20T03:46:07;4.03;;;2.08;;
19593;SDS011;9944;48.240;16.478;2023-07-20T03:50:33;2.90;;;1.98;;
19593;SDS011;9944;48.240;16.478;2023-07-20T03:54:58;3.55;;;2.03;;
19593;SDS011;9944;48.240;16.478;2023-07-20T03:59:22;3.67;;;2.10;;
19593;SDS011;9944;48.240;16.478;2023-07-20T04:03:45;3.25;;;2.05;;
19593;SDS011;9944;48.240;16.478;2023-07-20T04:08:11;3.30;;;2.10;;
19593;SDS011;9944;48.240;16.478;2023-07-20T04:12:36;2.63;;;1.95;;
19593;SDS011;9944;48.240;16.478;2023-07-20T04:17:00;2.40;;;2.03;;
19593;SDS011;9944;48.240;16.478;2023-07-20T04:21:25;3.08;;;2.10;;
19593;SDS011;9944;48.240;16.478;2023-07-20T04:25:51;3.75;;;1.85;;
19593;SDS011;9944;48.240;16.478;2023-07-20T04:30:16;3.50;;;2.15;;
19593;SDS011;9944;48.240;16.478;2023-07-20T04:34:42;2.47;;;1.70;;
19593;SDS011;9944;48.240;16.478;2023-07-20T04:39:05;2.30;;;2.10;;
19593;SDS011;9944;48.240;16.478;2023-07-20T04:43:50;3.03;;;1.77;;
19593;SDS011;9944;48.240;16.478;2023-07-20T04:48:21;2.10;;;1.90;;
19593;SDS011;9944;48.240;16.478;2023-07-20T04:52:47;2.88;;;1.90;;
19593;SDS011;9944;48.240;16.478;2023-07-20T04:57:14;3.65;;;2.10;;
19593;SDS011;9944;48.240;16.478;2023-07-20T05:01:41;2.63;;;1.95;;
19593;SDS011;9944;48.240;16.478;2023-07-20T05:06:06;2.35;;;2.00;;
19593;SDS011;9944;48.240;16.478;2023-07-20T05:10:30;2.42;;;1.83;;
19593;SDS011;9944;48.240;16.478;2023-07-20T05:14:55;3.10;;;1.80;;
19593;SDS011;9944;48.240;16.478;2023-07-20T05:19:19;2.65;;;1.80;;
19593;SDS011;9944;48.240;16.478;2023-07-20T05:23:44;3.75;;;2.10;;
19593;SDS011;9944;48.240;16.478;2023-07-20T05:28:09;2.58;;;1.83;;
19593;SDS011;9944;48.240;16.478;2023-07-20T05:32:32;2.80;;;1.98;;
19593;SDS011;9944;48.240;16.478;2023-07-20T05:37:11;2.13;;;1.90;;
19593;SDS011;9944;48.240;16.478;2023-07-20T05:41:37;2.40;;;2.00;;
19593;SDS011;9944;48.240;16.478;2023-07-20T05:46:01;5.10;;;2.10;;
19593;SDS011;9944;48.240;16.478;2023-07-20T05:50:24;4.15;;;2.28;;
19593;SDS011;9944;48.240;16.478;2023-07-20T05:54:48;3.28;;;2.50;;
19593;SDS011;9944;48.240;16.478;2023-07-20T05:59:13;2.42;;;2.22;;
19593;SDS011;9944;48.240;16.478;2023-07-20T06:03:37;4.97;;;2.28;;
19593;SDS011;9944;48.240;16.478;2023-07-20T06:08:01;2.65;;;2.00;;
19593;SDS011;9944;48.240;16.478;2023-07-20T06:12:24;2.92;;;2.38;;
19593;SDS011;9944;48.240;16.478;2023-07-20T06:16:49;3.10;;;2.00;;
19593;SDS011;9944;48.240;16.478;2023-07-20T06:21:12;3.42;;;2.45;;
19593;SDS011;9944;48.240;16.478;2023-07-20T06:25:36;4.28;;;2.40;;
19593;SDS011;9944;48.240;16.478;2023-07-20T06:30:00;5.63;;;2.28;;
19593;SDS011;9944;48.240;16.478;2023-07-20T06:34:25;3.35;;;2.22;;
19593;SDS011;9944;48.240;16.478;2023-07-20T06:38:48;2.92;;;2.30;;
19593;SDS011;9944;48.240;16.478;2023-07-20T06:43:15;2.92;;;2.10;;
19593;SDS011;9944;48.240;16.478;2023-07-20T06:47:42;2.95;;;2.13;;
19593;SDS011;9944;48.240;16.478;2023-07-20T06:52:07;2.53;;;2.00;;
19593;SDS011;9944;48.240;16.478;2023-07-20T06:56:31;5.75;;;2.03;;
19593;SDS011;9944;48.240;16.478;2023-07-20T07:00:55;3.08;;;1.98;;
19593;SDS011;9944;48.240;16.478;2023-07-20T07:05:19;2.63;;;2.10;;
19593;SDS011;9944;48.240;16.478;2023-07-20T07:09:44;2.70;;;2.20;;
19593;SDS011;9944;48.240;16.478;2023-07-20T07:14:08;3.33;;;2.05;;
19593;SDS011;9944;48.240;16.478;2023-07-20T07:18:31;2.10;;;1.90;;
19593;SDS011;9944;48.240;16.478;2023-07-20T07:22:57;2.55;;;1.73;;
19593;SDS011;9944;48.240;16.478;2023-07-20T07:27:21;3.33;;;2.03;;
19593;SDS011;9944;48.240;16.478;2023-07-20T07:31:46;2.97;;;2.10;;
19593;SDS011;9944;48.240;16.478;2023-07-20T07:36:09;2.72;;;2.40;;
19593;SDS011;9944;48.240;16.478;2023-07-20T07:40:33;2.40;;;1.77;;
19593;SDS011;9944;48.240;16.478;2023-07-20T07:44:57;2.03;;;1.73;;
19593;SDS011;9944;48.240;16.478;2023-07-20T07:49:21;2.50;;;1.88;;
19593;SDS011;9944;48.240;16.478;2023-07-20T07:53:45;2.50;;;1.80;;
19593;SDS011;9944;48.240;16.478;2023-07-20T07:58:11;3.40;;;2.00;;
19593;SDS011;9944;48.240;16.478;2023-07-20T08:02:40;2.33;;;1.92;;
19593;SDS011;9944;48.240;16.478;2023-07-20T08:07:04;2.03;;;1.67;;
19593;SDS011;9944;48.240;16.478;2023-07-20T08:11:28;2.17;;;1.75;;
19593;SDS011;9944;48.240;16.478;2023-07-20T08:15:55;2.83;;;1.90;;
19593;SDS011;9944;48.240;16.478;2023-07-20T08:20:20;2.58;;;2.00;;
19593;SDS011;9944;48.240;16.478;2023-07-20T08:24:48;2.72;;;2.08;;
19593;SDS011;9944;48.240;16.478;2023-07-20T08:29:12;4.72;;;2.03;;
19593;SDS011;9944;48.240;16.478;2023-07-20T08:33:36;1.77;;;1.63;;
19593;SDS011;9944;48.240;16.478;2023-07-20T08:38:01;4.35;;;2.03;;
19593;SDS011;9944;48.240;16.478;2023-07-20T08:42:26;5.35;;;2.20;;
19593;SDS011;9944;48.240;16.478;2023-07-20T08:46:50;3.30;;;1.80;;
19593;SDS011;9944;48.240;16.478;2023-07-20T08:51:14;4.63;;;1.92;;
19593;SDS011;9944;48.240;16.478;2023-07-20T08:55:40;2.72;;;1.90;;
19593;SDS011;9944;48.240;16.478;2023-07-20T09:00:07;2.60;;;1.95;;
19593;SDS011;9944;48.240;16.478;2023-07-20T09:04:34;2.20;;;1.98;;
19593;SDS011;9944;48.240;16.478;2023-07-20T09:08:58;5.10;;;2.58;;
19593;SDS011;9944;48.240;16.478;2023-07-20T09:13:23;2.60;;;1.80;;
19593;SDS011;9944;48.240;16.478;2023-07-20T09:17:50;4.80;;;2.15;;
19593;SDS011;9944;48.240;16.478;2023-07-20T09:22:15;2.15;;;1.95;;
19593;SDS011;9944;48.240;16.478;2023-07-20T09:26:43;2.30;;;1.95;;
19593;SDS011;9944;48.240;16.478;2023-07-20T09:31:16;2.25;;;1.80;;
19593;SDS011;9944;48.240;16.478;2023-07-20T09:35:41;3.03;;;1.70;;
19593;SDS011;9944;48.240;16.478;2023-07-20T09:40:16;2.40;;;1.85;;
19593;SDS011;9944;48.240;16.478;2023-07-20T09:44:43;3.67;;;2.08;;
19593;SDS011;9944;48.240;16.478;2023-07-20T09:49:11;2.60;;;1.80;;
19593;SDS011;9944;48.240;16.478;2023-07-20T09:53:40;2.25;;;1.77;;
19593;SDS011;9944;48.240;16.478;2023-07-20T09:58:03;2.05;;;1.85;;
19593;SDS011;9944;48.240;16.478;2023-07-20T10:02:30;3.58;;;2.05;;
19593;SDS011;9944;48.240;16.478;2023-07-20T10:06:58;2.10;;;1.90;;
19593;SDS011;9944;48.240;16.478;2023-07-20T10:11:25;2.78;;;2.10;;
19593;SDS011;9944;48.240;16.478;2023-07-20T10:15:53;2.38;;;2.05;;
19593;SDS011;9944;48.240;16.478;2023-07-20T10:20:19;2.38;;;1.80;;
19593;SDS011;9944;48.240;16.478;2023-07-20T10:24:45;2.15;;;1.95;;
19593;SDS011;9944;48.240;16.478;2023-07-20T10:29:10;2.85;;;2.05;;
19593;SDS011;9944;48.240;16.478;2023-07-20T10:33:35;2.15;;;1.80;;
19593;SDS011;9944;48.240;16.478;2023-07-20T10:38:02;2.42;;;1.90;;
19593;SDS011;9944;48.240;16.478;2023-07-20T10:42:28;2.65;;;2.03;;
19593;SDS011;9944;48.240;16.478;2023-07-20T10:47:00;2.10;;;1.50;;
19593;SDS011;9944;48.240;16.478;2023-07-20T10:51:26;2.00;;;1.80;;
19593;SDS011;9944;48.240;16.478;2023-07-20T10:55:50;2.95;;;1.88;;
19593;SDS011;9944;48.240;16.478;2023-07-20T11:00:30;2.42;;;1.70;;
19593;SDS011;9944;48.240;16.478;2023-07-20T11:04:54;1.98;;;1.65;;
19593;SDS011;9944;48.240;16.478;2023-07-20T11:09:22;2.10;;;1.60;;
19593;SDS011;9944;48.240;16.478;2023-07-20T11:13:54;2.50;;;1.83;;
19593;SDS011;9944;48.240;16.478;2023-07-20T11:18:20;1.75;;;1.50;;
19593;SDS011;9944;48.240;16.478;2023-07-20T11:22:44;2.25;;;1.50;;
19593;SDS011;9944;48.240;16.478;2023-07-20T11:27:09;5.28;;;1.92;;
19593;SDS011;9944;48.240;16.478;2023-07-20T11:31:34;2.35;;;1.50;;
19593;SDS011;9944;48.240;16.478;2023-07-20T11:35:59;2.55;;;1.40;;
19593;SDS011;9944;48.240;16.478;2023-07-20T11:40:24;3.53;;;1.70;;
19593;SDS011;9944;48.240;16.478;2023-07-20T11:44:51;1.83;;;1.40;;
19593;SDS011;9944;48.240;16.478;2023-07-20T11:49:14;1.70;;;1.40;;
19593;SDS011;9944;48.240;16.478;2023-07-20T11:53:39;1.33;;;1.23;;
19593;SDS011;9944;48.240;16.478;2023-07-20T11:58:03;2.95;;;1.40;;
19593;SDS011;9944;48.240;16.478;2023-07-20T12:02:27;2.78;;;1.30;;
19593;SDS011;9944;48.240;16.478;2023-07-20T12:06:52;1.40;;;1.30;;
19593;SDS011;9944;48.240;16.478;2023-07-20T12:11:31;2.85;;;1.38;;
19593;SDS011;9944;48.240;16.478;2023-07-20T12:15:55;2.80;;;1.25;;
19593;SDS011;9944;48.240;16.478;2023-07-20T12:20:25;1.42;;;1.33;;
19593;SDS011;9944;48.240;16.478;2023-07-20T12:24:52;3.88;;;1.50;;
19593;SDS011;9944;48.240;16.478;2023-07-20T12:29:16;2.97;;;1.40;;
19593;SDS011;9944;48.240;16.478;2023-07-20T12:33:40;2.45;;;1.55;;
19593;SDS011;9944;48.240;16.478;2023-07-20T12:38:04;2.42;;;1.33;;
19593;SDS011;9944;48.240;16.478;2023-07-20T12:42:28;1.88;;;1.17;;
19593;SDS011;9944;48.240;16.478;2023-07-20T12:46:53;1.52;;;1.30;;
19593;SDS011;9944;48.240;16.478;2023-07-20T12:51:17;1.33;;;1.20;;
19593;SDS011;9944;48.240;16.478;2023-07-20T12:55:40;1.92;;;1.33;;
19593;SDS011;9944;48.240;16.478;2023-07-20T13:00:05;2.55;;;1.50;;
19593;SDS011;9944;48.240;16.478;2023-07-20T13:04:31;2.08;;;1.10;;
19593;SDS011;9944;48.240;16.478;2023-07-20T13:08:55;1.40;;;1.15;;
19593;SDS011;9944;48.240;16.478;2023-07-20T13:13:20;1.20;;;1.05;;
19593;SDS011;9944;48.240;16.478;2023-07-20T13:17:43;1.35;;;1.20;;
19593;SDS011;9944;48.240;16.478;2023-07-20T13:22:09;2.13;;;1.17;;
19593;SDS011;9944;48.240;16.478;2023-07-20T13:26:33;1.30;;;1.20;;
19593;SDS011;9944;48.240;16.478;2023-07-20T13:30:57;1.25;;;1.15;;
19593;SDS011;9944;48.240;16.478;2023-07-20T13:35:21;1.85;;;1.33;;
19593;SDS011;9944;48.240;16.478;2023-07-20T13:39:45;2.28;;;1.30;;
19593;SDS011;9944;48.240;16.478;2023-07-20T13:44:11;1.40;;;1.30;;
19593;SDS011;9944;48.240;16.478;2023-07-20T13:48:38;3.20;;;1.30;;
19593;SDS011;9944;48.240;16.478;2023-07-20T13:53:02;1.30;;;1.20;;
19593;SDS011;9944;48.240;16.478;2023-07-20T13:57:30;2.83;;;2.03;;
19593;SDS011;9944;48.240;16.478;2023-07-20T14:01:56;2.47;;;1.70;;
19593;SDS011;9944;48.240;16.478;2023-07-20T14:06:23;1.65;;;1.35;;
19593;SDS011;9944;48.240;16.478;2023-07-20T14:10:52;1.48;;;1.30;;
19593;SDS011;9944;48.240;16.478;2023-07-20T14:15:19;2.08;;;1.10;;
19593;SDS011;9944;48.240;16.478;2023-07-20T14:19:43;3.13;;;1.52;;
19593;SDS011;9944;48.240;16.478;2023-07-20T14:24:07;1.65;;;1.30;;
19593;SDS011;9944;48.240;16.478;2023-07-20T14:28:31;1.67;;;1.35;;
19593;SDS011;9944;48.240;16.478;2023-07-20T14:32:56;1.65;;;1.50;;
19593;SDS011;9944;48.240;16.478;2023-07-20T14:37:20;1.83;;;1.30;;
19593;SDS011;9944;48.240;16.478;2023-07-20T14:41:43;1.42;;;1.30;;
19593;SDS011;9944;48.240;16.478;2023-07-20T14:46:07;1.45;;;1.35;;
19593;SDS011;9944;48.240;16.478;2023-07-20T14:50:32;3.10;;;1.50;;
19593;SDS011;9944;48.240;16.478;2023-07-20T14:54:56;4.20;;;1.65;;
19593;SDS011;9944;48.240;16.478;2023-07-20T14:59:19;1.92;;;1.30;;
19593;SDS011;9944;48.240;16.478;2023-07-20T15:03:43;1.80;;;1.40;;
19593;SDS011;9944;48.240;16.478;2023-07-20T15:08:08;1.45;;;1.25;;
19593;SDS011;9944;48.240;16.478;2023-07-20T15:12:32;1.45;;;1.27;;
19593;SDS011;9944;48.240;16.478;2023-07-20T15:16:55;1.40;;;1.30;;
19593;SDS011;9944;48.240;16.478;2023-07-20T15:21:19;3.53;;;1.40;;
19593;SDS011;9944;48.240;16.478;2023-07-20T15:25:44;1.95;;;1.25;;
19593;SDS011;9944;48.240;16.478;2023-07-20T15:30:08;1.70;;;1.55;;
19593;SDS011;9944;48.240;16.478;2023-07-20T15:34:31;1.98;;;1.30;;
19593;SDS011;9944;48.240;16.478;2023-07-20T15:38:55;1.42;;;1.30;;
19593;SDS011;9944;48.240;16.478;2023-07-20T15:43:21;1.40;;;1.20;;
19593;SDS011;9944;48.240;16.478;2023-07-20T15:47:45;2.20;;;1.50;;
19593;SDS011;9944;48.240;16.478;2023-07-20T15:52:08;1.40;;;1.30;;
19593;SDS011;9944;48.240;16.478;2023-07-20T15:56:33;1.77;;;1.27;;
19593;SDS011;9944;48.240;16.478;2023-07-20T16:00:58;1.40;;;1.30;;
19593;SDS011;9944;48.240;16.478;2023-07-20T16:05:22;1.27;;;1.10;;
19593;SDS011;9944;48.240;16.478;2023-07-20T16:09:46;1.55;;;1.20;;
19593;SDS011;9944;48.240;16.478;2023-07-20T16:14:09;2.08;;;1.15;;
19593;SDS011;9944;48.240;16.478;2023-07-20T16:18:34;1.20;;;1.05;;
19593;SDS011;9944;48.240;16.478;2023-07-20T16:22:58;1.00;;;0.90;;
19593;SDS011;9944;48.240;16.478;2023-07-20T16:27:21;1.52;;;1.27;;
19593;SDS011;9944;48.240;16.478;2023-07-20T16:31:45;1.20;;;1.10;;
19593;SDS011;9944;48.240;16.478;2023-07-20T16:36:13;1.20;;;1.10;;
19593;SDS011;9944;48.240;16.478;2023-07-20T16:40:39;2.28;;;1.13;;
19593;SDS011;9944;48.240;16.478;2023-07-20T16:45:05;1.80;;;1.33;;
19593;SDS011;9944;48.240;16.478;2023-07-20T16:49:30;1.15;;;1.05;;
19593;SDS011;9944;48.240;16.478;2023-07-20T16:53:55;1.33;;;0.95;;
19593;SDS011;9944;48.240;16.478;2023-07-20T16:58:19;1.27;;;1.17;;
19593;SDS011;9944;48.240;16.478;2023-07-20T17:02:43;1.20;;;1.10;;
19593;SDS011;9944;48.240;16.478;2023-07-20T17:07:07;3.33;;;1.30;;
19593;SDS011;9944;48.240;16.478;2023-07-20T17:11:35;1.40;;;1.20;;
19593;SDS011;9944;48.240;16.478;2023-07-20T17:15:59;1.55;;;1.13;;
19593;SDS011;9944;48.240;16.478;2023-07-20T17:20:22;1.23;;;1.10;;
19593;SDS011;9944;48.240;16.478;2023-07-20T17:24:49;1.52;;;1.20;;
19593;SDS011;9944;48.240;16.478;2023-07-20T17:29:17;2.20;;;1.10;;
19593;SDS011;9944;48.240;16.478;2023-07-20T17:33:40;1.02;;;0.82;;
19593;SDS011;9944;48.240;16.478;2023-07-20T17:38:04;2.72;;;1.30;;
19593;SDS011;9944;48.240;16.478;2023-07-20T17:42:31;2.42;;;1.30;;
19593;SDS011;9944;48.240;16.478;2023-07-20T17:46:58;1.52;;;1.10;;
19593;SDS011;9944;48.240;16.478;2023-07-20T17:51:26;2.53;;;1.20;;
19593;SDS011;9944;48.240;16.478;2023-07-20T17:55:49;1.17;;;1.08;;
19593;SDS011;9944;48.240;16.478;2023-07-20T18:00:13;1.50;;;1.13;;
19593;SDS011;9944;48.240;16.478;2023-07-20T18:04:42;2.03;;;1.05;;
19593;SDS011;9944;48.240;16.478;2023-07-20T18:09:06;2.38;;;1.17;;
19593;SDS011;9944;48.240;16.478;2023-07-20T18:13:31;1.27;;;1.00;;
19593;SDS011;9944;48.240;16.478;2023-07-20T18:17:55;1.10;;;0.90;;
19593;SDS011;9944;48.240;16.478;2023-07-20T18:22:19;1.25;;;1.00;;
19593;SDS011;9944;48.240;16.478;2023-07-20T18:26:43;1.23;;;1.10;;
19593;SDS011;9944;48.240;16.478;2023-07-20T18:31:06;1.25;;;1.15;;
19593;SDS011;9944;48.240;16.478;2023-07-20T18:35:30;1.33;;;1.20;;
19593;SDS011;9944;48.240;16.478;2023-07-20T18:39:57;4.00;;;1.42;;
19593;SDS011;9944;48.240;16.478;2023-07-20T18:44:21;2.10;;;1.25;;
19593;SDS011;9944;48.240;16.478;2023-07-20T18:48:44;2.78;;;1.00;;
19593;SDS011;9944;48.240;16.478;2023-07-20T18:53:08;1.70;;;1.00;;
19593;SDS011;9944;48.240;16.478;2023-07-20T18:57:33;1.45;;;1.10;;
19593;SDS011;9944;48.240;16.478;2023-07-20T19:01:57;1.85;;;1.00;;
19593;SDS011;9944;48.240;16.478;2023-07-20T19:06:21;2.80;;;1.13;;
19593;SDS011;9944;48.240;16.478;2023-07-20T19:10:45;2.33;;;1.33;;
19593;SDS011;9944;48.240;16.478;2023-07-20T19:15:12;1.80;;;1.30;;
19593;SDS011;9944;48.240;16.478;2023-07-20T19:19:36;2.95;;;1.13;;
19593;SDS011;9944;48.240;16.478;2023-07-20T19:24:00;3.83;;;1.13;;
19593;SDS011;9944;48.240;16.478;2023-07-20T19:28:24;2.13;;;1.30;;
19593;SDS011;9944;48.240;16.478;2023-07-20T19:32:48;1.77;;;1.30;;
19593;SDS011;9944;48.240;16.478;2023-07-20T19:37:13;2.30;;;1.20;;
19593;SDS011;9944;48.240;16.478;2023-07-20T19:41:36;1.67;;;1.27;;
19593;SDS011;9944;48.240;16.478;2023-07-20T19:46:01;1.67;;;1.10;;
19593;SDS011;9944;48.240;16.478;2023-07-20T19:50:27;1.20;;;1.02;;
19593;SDS011;9944;48.240;16.478;2023-07-20T19:54:51;3.83;;;1.30;;
19593;SDS011;9944;48.240;16.478;2023-07-20T19:59:14;1.23;;;1.13;;
19593;SDS011;9944;48.240;16.478;2023-07-20T20:03:38;1.25;;;1.00;;
19593;SDS011;9944;48.240;16.478;2023-07-20T20:08:04;1.60;;;1.35;;
19593;SDS011;9944;48.240;16.478;2023-07-20T20:12:28;2.33;;;1.23;;
19593;SDS011;9944;48.240;16.478;2023-07-20T20:16:51;1.23;;;1.10;;
19593;SDS011;9944;48.240;16.478;2023-07-20T20:21:15;1.38;;;1.00;;
19593;SDS011;9944;48.240;16.478;2023-07-20T20:25:40;2.97;;;1.30;;
19593;SDS011;9944;48.240;16.478;2023-07-20T20:30:04;1.33;;;1.23;;
19593;SDS011;9944;48.240;16.478;2023-07-20T20:34:28;1.80;;;1.17;;
19593;SDS011;9944;48.240;16.478;2023-07-20T20:38:52;1.65;;;1.20;;
19593;SDS011;9944;48.240;16.478;2023-07-20T20:43:16;1.25;;;1.08;;
19593;SDS011;9944;48.240;16.478;2023-07-20T20:47:40;1.77;;;0.90;;
19593;SDS011;9944;48.240;16.478;2023-07-20T20:52:04;1.77;;;1.23;;
19593;SDS011;9944;48.240;16.478;2023-07-20T20:56:28;3.47;;;1.45;;
19593;SDS011;9944;48.240;16.478;2023-07-20T21:00:54;1.52;;;1.30;;
19593;SDS011;9944;48.240;16.478;2023-07-20T21:05:22;1.50;;;1.27;;
19593;SDS011;9944;48.240;16.478;2023-07-20T21:09:45;1.95;;;1.33;;
19593;SDS011;9944;48.240;16.478;2023-07-20T21:14:09;1.98;;;1.40;;
19593;SDS011;9944;48.240;16.478;2023-07-20T21:18:34;2.55;;;1.63;;
19593;SDS011;9944;48.240;16.478;2023-07-20T21:22:58;1.75;;;1.50;;
19593;SDS011;9944;48.240;16.478;2023-07-20T21:27:22;2.22;;;1.45;;
19593;SDS011;9944;48.240;16.478;2023-07-20T21:31:46;2.45;;;1.60;;
19593;SDS011;9944;48.240;16.478;2023-07-20T21:36:10;2.40;;;1.38;;
19593;SDS011;9944;48.240;16.478;2023-07-20T21:40:35;2.88;;;1.40;;
19593;SDS011;9944;48.240;16.478;2023-07-20T21:44:59;3.78;;;1.60;;
19593;SDS011;9944;48.240;16.478;2023-07-20T21:49:22;3.85;;;1.63;;
19593;SDS011;9944;48.240;16.478;2023-07-20T21:53:47;3.42;;;1.40;;
19593;SDS011;9944;48.240;16.478;2023-07-20T21:58:11;1.60;;;1.30;;
19593;SDS011;9944;48.240;16.478;2023-07-20T22:02:35;1.80;;;1.20;;
19593;SDS011;9944;48.240;16.478;2023-07-20T22:06:59;2.22;;;1.50;;
19593;SDS011;9944;48.240;16.478;2023-07-20T22:11:24;2.47;;;1.50;;
19593;SDS011;9944;48.240;16.478;2023-07-20T22:15:48;1.67;;;1.27;;
19593;SDS011;9944;48.240;16.478;2023-07-20T22:20:13;2.92;;;1.50;;
19593;SDS011;9944;48.240;16.478;2023-07-20T22:24:38;3.53;;;1.73;;
19593;SDS011;9944;48.240;16.478;2023-07-20T22:29:03;1.75;;;1.20;;
19593;SDS011;9944;48.240;16.478;2023-07-20T22:33:26;2.42;;;1.38;;
19593;SDS011;9944;48.240;16.478;2023-07-20T22:37:51;3.33;;;1.60;;
19593;SDS011;9944;48.240;16.478;2023-07-20T22:42:15;3.25;;;1.60;;
19593;SDS011;9944;48.240;16.478;2023-07-20T22:46:40;2.75;;;1.40;;
19593;SDS011;9944;48.240;16.478;2023-07-20T22:51:04;1.92;;;1.50;;
19593;SDS011;9944;48.240;16.478;2023-07-20T22:55:27;2.88;;;1.70;;
19593;SDS011;9944;48.240;16.478;2023-07-20T22:59:51;2.03;;;1.60;;
19593;SDS011;9944;48.240;16.478;2023-07-20T23:04:16;4.22;;;2.13;;
19593;SDS011;9944;48.240;16.478;2023-07-20T23:08:42;2.42;;;1.60;;
19593;SDS011;9944;48.240;16.478;2023-07-20T23:13:05;2.60;;;1.65;;
19593;SDS011;9944;48.240;16.478;2023-07-20T23:17:29;1.67;;;1.25;;
19593;SDS011;9944;48.240;16.478;2023-07-20T23:21:54;3.55;;;1.67;;
19593;SDS011;9944;48.240;16.478;2023-07-20T23:26:19;2.00;;;1.50;;
19593;SDS011;9944;48.240;16.478;2023-07-20T23:30:44;3.55;;;1.50;;
19593;SDS011;9944;48.240;16.478;2023-07-20T23:35:11;3.25;;;1.50;;
19593;SDS011;9944;48.240;16.478;2023-07-20T23:39:37;3.20;;;1.90;;
19593;SDS011;9944;48.240;16.478;2023-07-20T23:44:00;1.92;;;1.50;;
19593;SDS011;9944;48.240;16.478;2023-07-20T23:48:24;3.25;;;1.48;;
19593;SDS011;9944;48.240;16.478;2023-07-20T23:52:52;2.58;;;1.50;;
19593;SDS011;9944;48.240;16.478;2023-07-20T23:57:17;3.38;;;1.40;;
